Nearby METAR Reports

 

KDAA - Fort Belvoir/Dav, Virginia, USA
Distance from station: SE 9mi, 15km
Updated: Thu, 20-Jan-2022 5:56am EST
Light rain, Overcast
Light rain, Overcast
 Wind from WNW
Wind: WNW 3 mph , 6 km/h
Temperature: 41°F , 5°C
Dew Point: 39°F , 4°C
Humidity: 93%
Barometer: 30.04 inHg , 1017.3 hPa
Summary: Light rain
Clouds: Overcast
Visibility: 10 miles , 16 km
Cloud details: Overcast 2600 ft
2022/01/20 10:56 KDAA 201056Z AUTO 29003KT 10SM -RA OVC026 05/04 A3004 RMK AO2 RAB00E01DZB01E04RAB04E10DZB10E16RAB41 SLP176 P0000 T00490039 $
KIAD - Wash Dc/Dulles, Virginia, USA
Distance from station: NW 12mi, 19km
Updated: Thu, 20-Jan-2022 6:52am EST
Rain, Mist, Overcast
Rain, Mist, Overcast
 Wind from NW
Wind: NW 7 mph , 11 km/h
Temperature: 41°F , 5°C
Wind Chill: 36°F , 2°C
Dew Point: 37°F , 3°C
Humidity: 87%
Barometer: 30.08 inHg , 1018.6 hPa
Summary: Rain, Mist
Clouds: Overcast
Visibility: 5 miles , 8 km
Cloud details: Mostly cloudy 2200 ft
Overcast 3200 ft
2022/01/20 11:52 KIAD 201152Z 32006KT 5SM RA BR BKN022 OVC032 05/03 A3008 RMK AO2 SLP186 P0012 60033 70042 T00500033 10050 20039 53026
 
KHEF - Manassas Muni, Virginia, USA
Distance from station: WSW 14mi, 22km
Updated: Thu, 20-Jan-2022 6:56am EST
Light rain, Mist, Overcast
Light rain, Mist, Overcast
 Wind from NNW
Wind: NNW 3 mph , 6 km/h
Temperature: 39°F , 4°C
Dew Point: 39°F , 4°C
Humidity: 100%
Barometer: 30.09 inHg , 1019 hPa
Summary: Light rain, Mist
Clouds: Overcast
Visibility: 5 miles , 8 km
Cloud details: Few Clouds 1200 ft
Mostly cloudy 2700 ft
Overcast 3300 ft
2022/01/20 11:56 KHEF 201156Z 33003KT 5SM -RA BR FEW012 BKN027 OVC033 04/04 A3009 RMK AO2 SLP196 P0008 60014 70016 T00390039 10044 20039 53030
KDCA - Washington/Natl, Washington D.c., USA
Distance from station: ENE 14mi, 23km
Updated: Thu, 20-Jan-2022 6:52am EST
Light rain, Mist, Overcast
Light rain, Mist, Overcast
 Wind from NNW
Wind: NNW 8 mph , 13 km/h
Temperature: 43°F , 6°C
Wind Chill: 38°F , 3°C
Dew Point: 39°F , 4°C
Humidity: 87%
Barometer: 30.09 inHg , 1019 hPa
Summary: Light rain, Mist
Clouds: Overcast
Visibility: 5 miles , 8 km
Cloud details: Mostly cloudy 3000 ft
Overcast 3700 ft
2022/01/20 11:52 KDCA 201152Z 34007KT 5SM -RA BR BKN030 OVC037 06/04 A3009 RMK AO2 SLP188 P0006 60007 70012 T00610039 10067 20050 53022
 
KNYG - Quantico Mcaf, Virginia, USA
Distance from station: S 21mi, 34km
Updated: Thu, 20-Jan-2022 6:56am EST
Light rain, Mist, Overcast
Light rain, Mist, Overcast
 Wind from WNW
Wind: WNW 5 mph , 7 km/h
Temperature: 43°F , 6°C
Wind Chill: 40°F , 4°C
Dew Point: 39°F , 4°C
Humidity: 87%
Barometer: 30.09 inHg , 1019 hPa
Summary: Light rain, Mist
Clouds: Overcast
Visibility: 4 miles , 6 km
Cloud details: Overcast 2500 ft
2022/01/20 11:56 KNYG 201156Z AUTO 30004KT 4SM -RA BR OVC025 06/04 A3009 RMK AO2 SLP191 P0005 60005 70005 T00610039 10078 20056 53028
KADW - Andrews Afb, Maryland, USA
Distance from station: E 23mi, 37km
Updated: Thu, 20-Jan-2022 5:56am EST
Light rain, Overcast
Light rain, Overcast
 Wind from NNW
Wind: NNW 3 mph , 6 km/h
Temperature: 41°F , 5°C
Dew Point: 39°F , 4°C
Humidity: 93%
Barometer: 30.02 inHg , 1016.6 hPa
Summary: Light rain
Clouds: Overcast
Visibility: 10 miles , 16 km
Cloud details: Overcast 2700 ft
2022/01/20 10:56 KADW 201056Z AUTO 33003KT 10SM -RA OVC027 05/04 A3002 RMK AO2 RAB26 CIG 003 RWY19R SLP174 P0000 T00490036 $
 
KJYO - Leesburg/Godfrey, Virginia, USA
Distance from station: NW 23mi, 37km
Updated: Thu, 20-Jan-2022 6:55am EST
Light rain, Overcast
Light rain, Overcast
 Wind from N
Wind: N 12 mph , 19 km/h, Gust: 17 mph , 28 km/h
Temperature: 39°F , 4°C
Wind Chill: 32°F , 0°C
Dew Point: 39°F , 4°C
Humidity: 100%
Barometer: 30.09 inHg , 1019 hPa
Summary: Light rain
Clouds: Overcast
Visibility: 7 miles , 11 km
Cloud details: Mostly cloudy 1000 ft
Overcast 1700 ft
2022/01/20 11:55 KJYO 201155Z AUTO 35010G15KT 7SM -RA BKN010 OVC017 04/04 A3009 RMK AO2 P0008
KCGS - College Park, Maryland, USA
Distance from station: ENE 24mi, 38km
Updated: Thu, 20-Jan-2022 6:55am EST
Overcast
Overcast
 Wind from calm
Wind: Calm
Temperature: 39°F , 4°C
Dew Point: 37°F , 3°C
Humidity: 93%
Barometer: 30.08 inHg , 1018.6 hPa
Clouds: Overcast
Visibility: 3 miles , 5 km
Cloud details: Mostly cloudy 2400 ft
Overcast 3100 ft
2022/01/20 11:55 KCGS 201155Z AUTO 00000KT 3SM BKN024 OVC031 04/03 A3008 RMK AO1 T00390029 10057 20037
 
KGAI - Gaithersburg, Maryland, USA
Distance from station: NNE 26mi, 41km
Updated: Thu, 20-Jan-2022 6:56am EST
Rain, Overcast
Rain, Overcast
 Wind from varies
Wind: varies 7 mph , 11 km/h
Temperature: 39°F , 4°C
Wind Chill: 34°F , 1°C
Dew Point: 37°F , 3°C
Humidity: 93%
Barometer: 30.07 inHg , 1018.3 hPa
Summary: Rain
Clouds: Overcast
Visibility: 9 miles , 14 km
Cloud details: Mostly cloudy 1700 ft
Overcast 2700 ft
2022/01/20 11:56 KGAI 201156Z AUTO VRB06KT 9SM RA BKN017 OVC027 04/03 A3007 RMK AO2 SLP200 P0010 60032 70040 T00390033 10044 20033 53021
KHWY - Warrenton, Virginia, USA
Distance from station: SW 28mi, 44km
Updated: Thu, 20-Jan-2022 6:55am EST
Rain, Overcast
Rain, Overcast
 Wind from NNE
Wind: NNE 3 mph , 6 km/h
Temperature: 39°F , 4°C
Dew Point: 37°F , 3°C
Humidity: 93%
Barometer: 30.07 inHg , 1018.3 hPa
Summary: Rain
Clouds: Overcast
Visibility: 4 miles , 6 km
Cloud details: Partly cloudy 1100 ft
Partly cloudy 1800 ft
Overcast 2600 ft
2022/01/20 11:55 KHWY 201155Z AUTO 02003KT 4SM RA SCT011 SCT018 OVC026 04/03 A3007 RMK AO2 P0009 60010 70010 T00420030 10054 20038
 
KRMN - Stafford Regnl, Virginia, USA
Distance from station: SSW 29mi, 47km
Updated: Thu, 20-Jan-2022 6:55am EST
Rain, Overcast
Rain, Overcast
 Wind from N
Wind: N 3 mph , 6 km/h
Temperature: 41°F , 5°C
Dew Point: 37°F , 3°C
Humidity: 87%
Barometer: 30.11 inHg , 1019.6 hPa
Summary: Rain
Clouds: Overcast
Visibility: 4 miles , 6 km
Cloud details: Partly cloudy 2900 ft
Partly cloudy 3500 ft
Overcast 4400 ft
2022/01/20 11:55 KRMN 201155Z AUTO 36003KT 4SM RA SCT029 SCT035 OVC044 05/03 A3011 RMK AO2 P0009 60009 70009 T00500025 10086 20050
KFME - Fort Meade, Maryland, USA
Distance from station: NE 34mi, 55km
Updated: Thu, 20-Jan-2022 6:55am EST
Overcast
Overcast
 Wind from calm
Wind: Calm
Temperature: 37°F , 3°C
Barometer: 30.10 inHg , 1019.3 hPa
Clouds: Overcast
Visibility: 1 3/4 miles , 2.8 km
Cloud details: Overcast 2300 ft
2022/01/20 11:55 KFME 201155Z AUTO 00000KT 1 3/4SM OVC023 03/ A3010 RMK AO1
 
KCJR - Culpeper, Virginia, USA
Distance from station: WSW 36mi, 58km
Updated: Thu, 20-Jan-2022 6:55am EST
Rain, Overcast
Rain, Overcast
 Wind from calm
Wind: Calm
Temperature: 39°F , 4°C
Dew Point: 37°F , 3°C
Humidity: 93%
Barometer: 30.09 inHg , 1019 hPa
Summary: Rain
Clouds: Overcast
Visibility: 2 1/2 miles , 4 km
Cloud details: Mostly cloudy 1200 ft
Mostly cloudy 2000 ft
Overcast 2800 ft
2022/01/20 11:55 KCJR 201155Z AUTO 00000KT 2 1/2SM RA BKN012 BKN020 OVC028 04/03 A3009 RMK AO2 P0011 60014 70014 T00380031 10061 20037
KEZF - Fredericksb/Shan, Virginia, USA
Distance from station: SSW 38mi, 62km
Updated: Thu, 20-Jan-2022 6:55am EST
Rain, Overcast
Rain, Overcast
 Wind from NNW
Wind: NNW 3 mph , 6 km/h
Temperature: 41°F , 5°C
Dew Point: 34°F , 1°C
Humidity: 76%
Barometer: 30.06 inHg , 1017.9 hPa
Summary: Rain
Clouds: Overcast
Visibility: 10 miles , 16 km
Cloud details: Overcast 4800 ft
2022/01/20 11:55 KEZF 201155Z AUTO 34003KT 10SM RA OVC048 05/01 A3006 RMK AO2 P0001 60001 70001 T00510014 10090 20035
 
KBWI - Balto/Wash Intl, Maryland, USA
Distance from station: NE 41mi, 66km
Updated: Thu, 20-Jan-2022 6:54am EST
Light rain, Mist, Overcast
Light rain, Mist, Overcast
 Wind from WNW
Wind: WNW 3 mph , 6 km/h
Temperature: 41°F , 5°C
Dew Point: 39°F , 4°C
Humidity: 93%
Barometer: 30.06 inHg , 1017.9 hPa
Summary: Light rain, Mist
Clouds: Overcast
Visibility: 5 miles , 8 km
Cloud details: Mostly cloudy 2200 ft
Overcast 3400 ft
2022/01/20 11:54 KBWI 201154Z 29003KT 5SM -RA BR BKN022 OVC034 05/04 A3006 RMK AO2 SLP180 P0008 60015 70017 T00500044 10061 20050 53019
KFDK - Frederick, Maryland, USA
Distance from station: N 42mi, 68km
Updated: Thu, 20-Jan-2022 6:47am EST
Light rain, Overcast
Light rain, Overcast
 Wind from calm
Wind: Calm
Temperature: 37°F , 3°C
Dew Point: 37°F , 3°C
Humidity: 100%
Barometer: 30.08 inHg , 1018.6 hPa
Summary: Light rain
Clouds: Overcast
Visibility: 3 miles , 5 km
Cloud details: Overcast 1900 ft
2022/01/20 11:47 KFDK 201147Z 00000KT 3SM -RA OVC019 03/03 A3008
 
KNAK - Annapolis/Naval, Maryland, USA
Distance from station: ENE 45mi, 73km
Updated: Thu, 20-Jan-2022 6:54am EST

 
Barometer: 30.07 inHg , 1018.3 hPa
2022/01/20 11:54 KNAK 201154Z AUTO A3007 RMK AO2 SLP186 53020 PWINO FZRANO